createdAt,value
2023-01-10T00:01:08.987Z,101217.56
2023-01-10T00:03:12.321Z,101223.56
2023-01-10T00:05:14.469Z,101223.97
2023-01-10T00:07:16.251Z,101239.78
2023-01-10T00:09:18.163Z,101238.75
2023-01-10T00:11:29.269Z,101242.47
2023-01-10T00:13:31.043Z,101245.94
2023-01-10T00:15:33.803Z,101249.63
2023-01-10T00:17:35.578Z,101253.69
2023-01-10T00:19:37.474Z,101240.34
2023-01-10T00:21:39.968Z,101235.53
2023-01-10T00:23:43.476Z,101230.47
2023-01-10T00:25:45.286Z,101242.22
2023-01-10T00:27:55.373Z,101237.09
2023-01-10T00:30:00.514Z,101241.00
2023-01-10T00:32:02.381Z,101248.69
2023-01-10T00:34:04.225Z,101245.41
2023-01-10T00:36:07.874Z,101252.47
2023-01-10T00:38:12.494Z,101259.38
2023-01-10T00:40:14.621Z,101258.38
2023-01-10T00:42:26.290Z,101256.34
2023-01-10T00:44:28.160Z,101257.22
2023-01-10T00:46:30.963Z,101252.50
2023-01-10T00:48:32.772Z,101259.31
2023-01-10T00:50:34.699Z,101268.25
2023-01-10T00:52:36.499Z,101264.03
2023-01-10T00:54:38.373Z,101258.84
2023-01-10T00:56:40.477Z,101264.78
2023-01-10T00:58:42.595Z,101263.09
2023-01-10T01:00:49.960Z,101271.84
2023-01-10T01:02:52.073Z,101271.75
2023-01-10T01:04:53.942Z,101278.72
2023-01-10T01:06:55.767Z,101276.09
2023-01-10T01:08:58.005Z,101275.06
2023-01-10T01:10:59.807Z,101279.13
2023-01-10T01:13:08.330Z,101279.13
2023-01-10T01:15:10.247Z,101278.06
2023-01-10T01:17:12.284Z,101271.28
2023-01-10T01:19:14.183Z,101283.94
2023-01-10T01:21:16.049Z,101289.88
2023-01-10T01:23:17.874Z,101291.06
2023-01-10T01:25:19.782Z,101284.75
2023-01-10T01:27:21.585Z,101289.66
2023-01-10T01:29:26.227Z,101279.63
2023-01-10T01:31:32.780Z,101286.50
2023-01-10T01:33:35.036Z,101292.28
2023-01-10T01:35:37.122Z,101287.56
2023-01-10T01:37:38.923Z,101291.56
2023-01-10T01:39:40.957Z,101287.13
2023-01-10T01:41:52.325Z,101281.34
2023-01-10T01:44:06.513Z,101298.50
2023-01-10T01:46:08.295Z,101297.19
2023-01-10T01:48:23.600Z,101294.56
2023-01-10T01:50:32.257Z,101303.09
2023-01-10T01:52:37.394Z,101293.75
2023-01-10T01:54:39.609Z,101291.41
2023-01-10T01:56:48.012Z,101295.75
2023-01-10T01:58:52.392Z,101293.00
2023-01-10T02:00:54.298Z,101280.56
2023-01-10T02:03:02.916Z,101273.78
2023-01-10T02:05:10.985Z,101283.00
2023-01-10T02:07:13.982Z,101286.63
2023-01-10T02:09:26.951Z,101302.19
2023-01-10T02:11:30.242Z,101287.28
2023-01-10T02:13:35.183Z,101287.97
2023-01-10T02:15:37.057Z,101287.47
2023-01-10T02:17:39.664Z,101290.97
2023-01-10T02:19:50.795Z,101298.56
2023-01-10T02:22:11.534Z,101300.00
2023-01-10T02:24:24.029Z,101323.53
2023-01-10T02:26:27.430Z,101320.09
2023-01-10T02:28:51.755Z,101323.41
2023-01-10T02:31:12.510Z,101323.16
2023-01-10T02:33:23.723Z,101330.09
2023-01-10T02:35:25.958Z,101326.72
2023-01-10T02:37:37.165Z,101334.16
2023-01-10T02:39:47.210Z,101325.03
2023-01-10T02:42:04.405Z,101332.09
2023-01-10T02:44:10.155Z,101334.28
2023-01-10T02:46:18.601Z,101349.63
2023-01-10T02:48:21.856Z,101347.31
2023-01-10T02:50:28.123Z,101332.63
2023-01-10T02:52:31.588Z,101335.34
2023-01-10T02:54:33.484Z,101329.19
2023-01-10T02:56:46.637Z,101325.84
2023-01-10T02:59:07.553Z,101333.28
2023-01-10T03:01:21.419Z,101341.63
2023-01-10T03:03:33.842Z,101336.50
2023-01-10T03:05:55.690Z,101335.56
2023-01-10T03:08:07.949Z,101340.44
2023-01-10T03:10:15.717Z,101345.13
2023-01-10T03:12:27.279Z,101347.09
2023-01-10T03:14:32.028Z,101333.72
2023-01-10T03:16:37.128Z,101331.22
2023-01-10T03:18:48.154Z,101326.28
2023-01-10T03:20:52.617Z,101328.69
2023-01-10T03:22:56.345Z,101322.91
2023-01-10T03:25:01.502Z,101317.06
2023-01-10T03:27:12.141Z,101318.94
2023-01-10T03:29:19.401Z,101325.03
2023-01-10T03:31:28.535Z,101317.38
2023-01-10T03:33:33.198Z,101318.44
2023-01-10T03:35:54.522Z,101314.44
2023-01-10T03:38:04.051Z,101301.03
2023-01-10T03:40:12.210Z,101301.25
2023-01-10T03:42:28.048Z,101292.50
2023-01-10T03:44:44.358Z,101296.16
2023-01-10T03:46:54.618Z,101283.34
2023-01-10T03:48:58.549Z,101281.50
2023-01-10T03:51:03.860Z,101287.72
2023-01-10T03:53:06.243Z,101291.16
2023-01-10T03:55:12.003Z,101283.69
2023-01-10T03:57:19.030Z,101277.69
2023-01-10T03:59:24.851Z,101267.47
2023-01-10T04:01:27.516Z,101271.19
2023-01-10T04:03:29.543Z,101268.81
2023-01-10T04:05:31.400Z,101268.91
2023-01-10T04:07:33.318Z,101265.03
2023-01-10T04:09:35.238Z,101263.63
2023-01-10T04:11:37.468Z,101261.34
2023-01-10T04:13:42.163Z,101266.06
2023-01-10T04:15:43.957Z,101262.75
2023-01-10T04:17:45.929Z,101265.44
2023-01-10T04:19:47.771Z,101266.94
2023-01-10T04:21:49.543Z,101272.06
2023-01-10T04:23:51.333Z,101282.34
2023-01-10T04:25:53.142Z,101283.97
2023-01-10T04:27:54.964Z,101276.47
2023-01-10T04:29:56.911Z,101270.31
2023-01-10T04:31:58.892Z,101265.38
2023-01-10T04:34:00.668Z,101259.75
2023-01-10T04:36:02.880Z,101255.56
2023-01-10T04:38:04.695Z,101255.44
2023-01-10T04:40:07.563Z,101253.81
2023-01-10T04:42:09.407Z,101250.38
2023-01-10T04:44:12.900Z,101251.13
2023-01-10T04:46:14.769Z,101241.31
2023-01-10T04:48:17.233Z,101241.41
2023-01-10T04:50:19.259Z,101234.78
2023-01-10T04:52:21.344Z,101232.66
2023-01-10T04:54:23.528Z,101232.94
2023-01-10T04:56:25.654Z,101230.91
2023-01-10T04:58:27.528Z,101225.78
2023-01-10T05:00:29.396Z,101217.44
2023-01-10T05:02:31.352Z,101210.88
2023-01-10T05:04:33.221Z,101217.25
2023-01-10T05:06:35.107Z,101213.88
2023-01-10T05:08:36.954Z,101203.38
2023-01-10T05:10:38.777Z,101201.88
2023-01-10T05:12:40.712Z,101201.13
2023-01-10T05:14:42.617Z,101202.09
2023-01-10T05:16:44.625Z,101203.84
2023-01-10T05:18:46.481Z,101205.47
2023-01-10T05:20:48.478Z,101201.41
2023-01-10T05:22:50.303Z,101206.91
2023-01-10T05:24:54.509Z,101211.16
2023-01-10T05:26:56.497Z,101210.28
2023-01-10T05:28:58.326Z,101216.38
2023-01-10T05:31:00.358Z,101213.59
2023-01-10T05:33:04.815Z,101210.81
2023-01-10T05:35:07.408Z,101212.84
2023-01-10T05:37:09.228Z,101211.91
2023-01-10T05:39:11.088Z,101206.78
2023-01-10T05:41:13.039Z,101210.59
2023-01-10T05:43:14.801Z,101197.66
2023-01-10T05:45:16.771Z,101184.25
2023-01-10T05:47:18.691Z,101188.00
2023-01-10T05:49:20.491Z,101185.28
2023-01-10T05:51:22.329Z,101186.84
2023-01-10T05:53:24.197Z,101190.53
2023-01-10T05:55:25.977Z,101184.47
2023-01-10T05:57:27.783Z,101180.47
2023-01-10T05:59:29.584Z,101179.59
2023-01-10T06:01:31.470Z,101170.78
2023-01-10T06:03:33.310Z,101167.34
2023-01-10T06:05:35.174Z,101162.28
2023-01-10T06:07:37.441Z,101164.19
2023-01-10T06:09:39.246Z,101157.47
2023-01-10T06:11:41.091Z,101143.03
2023-01-10T06:13:42.881Z,101145.81
2023-01-10T06:15:44.703Z,101135.59
2023-01-10T06:17:46.631Z,101130.50
2023-01-10T06:19:48.606Z,101131.00
2023-01-10T06:21:50.487Z,101129.66
2023-01-10T06:23:52.370Z,101119.59
2023-01-10T06:25:54.203Z,101118.66
2023-01-10T06:27:56.189Z,101117.28
2023-01-10T06:29:59.681Z,101116.56
2023-01-10T06:32:01.523Z,101108.66
2023-01-10T06:34:03.401Z,101114.19
2023-01-10T06:36:05.777Z,101110.03
2023-01-10T06:38:07.807Z,101107.00
2023-01-10T06:40:11.473Z,101111.38
2023-01-10T06:42:13.822Z,101111.84
2023-01-10T06:44:15.622Z,101110.50
2023-01-10T06:46:19.687Z,101115.50
2023-01-10T06:48:22.091Z,101111.84
2023-01-10T06:50:24.226Z,101099.56
2023-01-10T06:52:26.014Z,101097.53
2023-01-10T06:54:27.855Z,101099.72
2023-01-10T06:56:29.801Z,101092.84
2023-01-10T06:58:32.498Z,101092.50
2023-01-10T07:00:34.523Z,101098.22
2023-01-10T07:02:37.381Z,101093.81
2023-01-10T07:04:39.271Z,101094.81
2023-01-10T07:06:41.779Z,101088.28
2023-01-10T07:08:45.761Z,101085.50
2023-01-10T07:10:47.587Z,101076.97
2023-01-10T07:12:49.347Z,101070.25
2023-01-10T07:14:51.176Z,101072.56
2023-01-10T07:16:53.007Z,101064.25
2023-01-10T07:18:54.869Z,101059.91
2023-01-10T07:20:56.777Z,101070.66
2023-01-10T07:23:00.484Z,101059.63
2023-01-10T07:25:02.375Z,101063.78
2023-01-10T07:27:04.555Z,101052.16
2023-01-10T07:29:06.496Z,101047.56
2023-01-10T07:31:08.350Z,101046.25
2023-01-10T07:33:10.317Z,101042.88
2023-01-10T07:35:12.282Z,101044.31
2023-01-10T07:37:14.096Z,101038.53
2023-01-10T07:39:15.947Z,101034.06
2023-01-10T07:41:17.894Z,101034.25
2023-01-10T07:43:19.699Z,101027.84
2023-01-10T07:45:21.679Z,101025.28
2023-01-10T07:47:23.496Z,101034.72
2023-01-10T07:49:25.301Z,101030.19
2023-01-10T07:51:27.177Z,101019.09
2023-01-10T07:53:30.020Z,101012.38
2023-01-10T07:55:34.779Z,101007.44
2023-01-10T07:57:36.701Z,101008.84
2023-01-10T07:59:38.597Z,100997.72
2023-01-10T08:01:40.473Z,100996.13
2023-01-10T08:03:42.856Z,100980.09
2023-01-10T08:05:45.103Z,100973.88
2023-01-10T08:07:47.066Z,100963.53
2023-01-10T08:09:48.958Z,100969.50
2023-01-10T08:11:50.869Z,100963.75
2023-01-10T08:13:52.800Z,100961.09
2023-01-10T08:15:55.181Z,100955.25
2023-01-10T08:18:03.440Z,100951.22
2023-01-10T08:20:07.665Z,100945.56
2023-01-10T08:22:09.654Z,100950.13
2023-01-10T08:24:11.827Z,100945.00
2023-01-10T08:26:13.757Z,100941.56
2023-01-10T08:28:15.845Z,100957.72
2023-01-10T08:30:18.122Z,100941.53
2023-01-10T08:32:20.089Z,100939.78
2023-01-10T08:34:22.469Z,100932.09
2023-01-10T08:36:24.516Z,100929.72
2023-01-10T08:38:26.484Z,100914.25
2023-01-10T08:40:28.543Z,100919.41
2023-01-10T08:42:30.446Z,100912.09
2023-01-10T08:44:32.381Z,100914.81
2023-01-10T08:46:34.390Z,100895.81
2023-01-10T08:48:36.329Z,100905.59
2023-01-10T08:50:38.402Z,100892.78
2023-01-10T08:52:40.358Z,100900.09
2023-01-10T08:54:42.351Z,100899.13
2023-01-10T08:56:44.429Z,100875.31
2023-01-10T08:58:46.379Z,100890.47
2023-01-10T09:00:49.703Z,100884.69
2023-01-10T09:02:52.112Z,100890.38
2023-01-10T09:04:54.025Z,100881.94
2023-01-10T09:06:56.524Z,100884.00
2023-01-10T09:08:59.376Z,100874.22
2023-01-10T09:11:02.124Z,100870.09
2023-01-10T09:13:05.120Z,100858.47
2023-01-10T09:15:08.224Z,100858.59
2023-01-10T09:17:10.144Z,100847.31
2023-01-10T09:19:12.599Z,100859.50
2023-01-10T09:21:14.552Z,100863.28
2023-01-10T09:23:20.389Z,100852.34
2023-01-10T09:25:23.354Z,100844.75
2023-01-10T09:27:25.385Z,100847.41
2023-01-10T09:29:27.406Z,100845.72
2023-01-10T09:31:29.429Z,100842.78
2023-01-10T09:33:45.298Z,100832.31
2023-01-10T09:35:48.571Z,100822.56
2023-01-10T09:37:50.990Z,100823.41
2023-01-10T09:39:53.157Z,100819.72
2023-01-10T09:42:03.073Z,100817.38
2023-01-10T09:44:05.522Z,100836.41
2023-01-10T09:46:26.530Z,100820.16
2023-01-10T09:48:38.706Z,100817.75
2023-01-10T09:51:00.954Z,100814.56
2023-01-10T09:53:13.209Z,100836.00
2023-01-10T09:55:27.563Z,100794.19
2023-01-10T09:57:29.706Z,100809.44
2023-01-10T09:59:38.156Z,100791.00
2023-01-10T10:01:40.506Z,100803.84
2023-01-10T10:03:55.851Z,100796.00
2023-01-10T10:06:10.833Z,100777.53
2023-01-10T10:08:18.103Z,100780.06
2023-01-10T10:10:26.630Z,100789.50
2023-01-10T10:12:37.890Z,100780.16
2023-01-10T10:14:55.423Z,100782.91
2023-01-10T10:17:12.947Z,100780.44
2023-01-10T10:19:33.187Z,100766.78
2023-01-10T10:21:54.405Z,100756.16
2023-01-10T10:23:58.048Z,100745.97
2023-01-10T10:26:16.471Z,100757.31
2023-01-10T10:28:53.549Z,100734.22
2023-01-10T10:31:02.987Z,100723.22
2023-01-10T10:33:06.326Z,100736.13
2023-01-10T10:35:18.489Z,100730.78
2023-01-10T10:37:33.009Z,100718.97
2023-01-10T10:39:42.807Z,100705.63
2023-01-10T10:41:48.431Z,100694.44
2023-01-10T10:43:51.890Z,100698.84
2023-01-10T10:45:59.089Z,100682.75
2023-01-10T10:48:13.067Z,100673.41
2023-01-10T10:50:15.693Z,100693.81
2023-01-10T10:52:24.585Z,100665.75
2023-01-10T10:54:26.570Z,100668.72
2023-01-10T10:56:28.524Z,100689.69
2023-01-10T10:58:32.282Z,100657.38
2023-01-10T11:00:34.306Z,100664.44
2023-01-10T11:02:50.417Z,100650.66
2023-01-10T11:04:56.053Z,100626.88
2023-01-10T11:06:58.234Z,100636.31
2023-01-10T11:09:04.926Z,100632.09
2023-01-10T11:11:22.286Z,100614.91
2023-01-10T11:13:35.405Z,100621.25
2023-01-10T11:15:40.895Z,100611.75
2023-01-10T11:17:43.186Z,100621.06
2023-01-10T11:19:56.992Z,100588.75
2023-01-10T11:22:03.868Z,100551.94
2023-01-10T11:24:06.591Z,100568.09
2023-01-10T11:26:23.698Z,100578.66
2023-01-10T11:28:30.255Z,100549.00
2023-01-10T11:30:33.752Z,100558.16
2023-01-10T11:32:48.662Z,100540.34
2023-01-10T11:34:54.297Z,100539.00
2023-01-10T11:37:18.267Z,100533.59
2023-01-10T11:39:20.235Z,100533.72
2023-01-10T11:41:31.841Z,100529.75
2023-01-10T11:43:37.920Z,100516.38
2023-01-10T11:45:40.821Z,100520.34
2023-01-10T11:47:45.934Z,100522.84
2023-01-10T11:49:49.969Z,100511.72
2023-01-10T11:51:56.172Z,100506.38
2023-01-10T11:54:02.733Z,100502.69
2023-01-10T11:56:07.147Z,100492.63
2023-01-10T11:58:15.393Z,100492.66
2023-01-10T12:00:20.700Z,100480.97
2023-01-10T12:02:28.090Z,100489.53
2023-01-10T12:04:33.436Z,100492.78
2023-01-10T12:06:35.598Z,100459.72
2023-01-10T12:08:42.745Z,100465.91
2023-01-10T12:11:02.060Z,100466.63
2023-01-10T12:13:15.045Z,100454.03
2023-01-10T12:15:27.177Z,100459.97
2023-01-10T12:17:34.273Z,100453.50
2023-01-10T12:19:36.413Z,100436.34
2023-01-10T12:21:44.226Z,100430.38
2023-01-10T12:23:49.147Z,100437.25
2023-01-10T12:26:00.292Z,100427.09
2023-01-10T12:28:22.073Z,100429.72
2023-01-10T12:30:33.657Z,100414.38
2023-01-10T12:32:42.370Z,100416.91
2023-01-10T12:34:50.942Z,100410.03
2023-01-10T12:37:09.322Z,100398.03
2023-01-10T12:39:21.417Z,100401.59
2023-01-10T12:41:40.314Z,100390.47
2023-01-10T12:43:54.585Z,100384.69
2023-01-10T12:46:16.759Z,100384.75
2023-01-10T12:48:42.546Z,100378.13
2023-01-10T12:50:54.282Z,100369.69
2023-01-10T12:53:13.596Z,100374.91
2023-01-10T12:55:17.503Z,100354.44
2023-01-10T12:57:34.909Z,100359.75
2023-01-10T12:59:41.875Z,100359.78
2023-01-10T13:01:49.989Z,100361.63
2023-01-10T13:03:59.857Z,100358.19
2023-01-10T13:06:02.587Z,100356.63
2023-01-10T13:08:11.947Z,100346.47
2023-01-10T13:10:19.131Z,100342.19
2023-01-10T13:12:34.300Z,100342.28
2023-01-10T13:14:46.815Z,100338.81
2023-01-10T13:16:51.606Z,100337.22
2023-01-10T13:19:02.984Z,100324.53
2023-01-10T13:21:13.763Z,100334.84
2023-01-10T13:23:24.488Z,100322.94
2023-01-10T13:25:37.979Z,100328.13
2023-01-10T13:27:40.078Z,100317.00
2023-01-10T13:29:43.136Z,100317.00
2023-01-10T13:31:45.763Z,100316.19
2023-01-10T13:33:55.696Z,100317.91
2023-01-10T13:36:08.809Z,100309.44
2023-01-10T13:38:22.422Z,100299.97
2023-01-10T13:40:28.474Z,100312.94
2023-01-10T13:42:42.435Z,100300.03
2023-01-10T13:45:03.646Z,100288.91
2023-01-10T13:47:09.591Z,100289.06
2023-01-10T13:49:11.957Z,100282.28
2023-01-10T13:51:19.945Z,100287.44
2023-01-10T13:53:22.341Z,100276.25
2023-01-10T13:55:29.141Z,100291.81
2023-01-10T13:57:50.202Z,100278.03
2023-01-10T14:00:12.445Z,100282.31
2023-01-10T14:02:28.465Z,100301.28
2023-01-10T14:04:33.580Z,100288.38
2023-01-10T14:06:41.360Z,100301.22
2023-01-10T14:08:52.175Z,100276.34
2023-01-10T14:11:03.488Z,100276.41
2023-01-10T14:13:18.985Z,100282.44
2023-01-10T14:15:26.606Z,100268.75
2023-01-10T14:17:32.182Z,100284.97
2023-01-10T14:19:34.801Z,100282.50
2023-01-10T14:21:45.465Z,100265.31
2023-01-10T14:23:51.205Z,100264.50
2023-01-10T14:25:57.507Z,100261.84
2023-01-10T14:28:00.966Z,100262.66
2023-01-10T14:30:03.841Z,100256.66
2023-01-10T14:32:28.174Z,100246.34
2023-01-10T14:34:37.108Z,100256.66
2023-01-10T14:36:49.954Z,100258.34
2023-01-10T14:38:57.203Z,100267.88
2023-01-10T14:41:06.440Z,100273.00
2023-01-10T14:43:15.849Z,100264.44
2023-01-10T14:45:29.709Z,100260.19
2023-01-10T14:47:34.920Z,100267.09
2023-01-10T14:49:49.694Z,100263.59
2023-01-10T14:51:53.210Z,100268.75
2023-01-10T14:53:56.678Z,100251.56
2023-01-10T14:55:59.363Z,100263.59
2023-01-10T14:58:02.464Z,100255.03
2023-01-10T15:00:09.645Z,100249.88
2023-01-10T15:02:25.741Z,100261.06
2023-01-10T15:04:31.186Z,100244.72
2023-01-10T15:06:52.537Z,100254.13
2023-01-10T15:08:57.740Z,100269.66
2023-01-10T15:11:06.854Z,100282.50
2023-01-10T15:13:12.298Z,100268.75
2023-01-10T15:15:19.351Z,100255.03
2023-01-10T15:17:22.297Z,100257.56
2023-01-10T15:19:25.636Z,100275.63
2023-01-10T15:21:27.796Z,100243.00
2023-01-10T15:23:39.116Z,100254.06
2023-01-10T15:25:42.402Z,100248.97
2023-01-10T15:27:47.368Z,100240.38
2023-01-10T15:29:49.452Z,100235.19
2023-01-10T15:31:55.513Z,100256.75
2023-01-10T15:33:58.715Z,100240.41
2023-01-10T15:36:07.387Z,100251.53
2023-01-10T15:38:14.928Z,100248.16
2023-01-10T15:40:22.833Z,100245.53
2023-01-10T15:42:24.895Z,100240.47
2023-01-10T15:44:40.074Z,100231.00
2023-01-10T15:46:55.314Z,100238.69
2023-01-10T15:49:01.714Z,100227.50
2023-01-10T15:51:15.528Z,100231.81
2023-01-10T15:53:17.527Z,100249.88
2023-01-10T15:55:41.812Z,100232.56
2023-01-10T15:57:43.941Z,100221.44
2023-01-10T15:59:50.271Z,100223.16
2023-01-10T16:01:59.086Z,100230.84
2023-01-10T16:04:04.970Z,100230.84
2023-01-10T16:06:10.105Z,100242.09
2023-01-10T16:08:12.448Z,100211.13
2023-01-10T16:10:25.992Z,100187.09
2023-01-10T16:12:43.307Z,100193.94
2023-01-10T16:14:45.313Z,100196.50
2023-01-10T16:16:47.246Z,100198.16
2023-01-10T16:18:49.344Z,100197.41
2023-01-10T16:20:53.944Z,100177.63
2023-01-10T16:22:56.879Z,100178.44
2023-01-10T16:24:58.873Z,100170.78
2023-01-10T16:27:06.075Z,100174.19
2023-01-10T16:29:08.144Z,100160.38
2023-01-10T16:31:12.796Z,100165.56
2023-01-10T16:33:17.914Z,100146.63
2023-01-10T16:35:20.460Z,100147.47
2023-01-10T16:37:22.464Z,100162.09
2023-01-10T16:39:24.541Z,100154.31
2023-01-10T16:41:36.355Z,100160.34
2023-01-10T16:43:38.280Z,100173.28
2023-01-10T16:45:41.625Z,100150.97
2023-01-10T16:47:43.695Z,100167.31
2023-01-10T16:49:47.077Z,100162.13
2023-01-10T16:51:49.226Z,100150.06
2023-01-10T16:53:52.132Z,100171.56
2023-01-10T16:55:54.183Z,100159.56
2023-01-10T16:57:56.740Z,100151.81
2023-01-10T16:59:58.660Z,100144.03
2023-01-10T17:02:00.761Z,100159.50
2023-01-10T17:04:04.403Z,100144.06
2023-01-10T17:06:06.828Z,100153.53
2023-01-10T17:08:16.453Z,100163.81
2023-01-10T17:10:18.488Z,100146.69
2023-01-10T17:12:20.746Z,100132.97
2023-01-10T17:14:23.433Z,100166.50
2023-01-10T17:16:25.581Z,100138.13
2023-01-10T17:18:28.850Z,100133.78
2023-01-10T17:20:31.029Z,100132.94
2023-01-10T17:22:33.267Z,100130.34
2023-01-10T17:24:36.306Z,100130.31
2023-01-10T17:26:38.309Z,100126.03
2023-01-10T17:28:41.457Z,100132.06
2023-01-10T17:30:44.148Z,100126.03
2023-01-10T17:32:46.137Z,100118.31
2023-01-10T17:34:48.272Z,100108.03
2023-01-10T17:36:50.273Z,100142.38
2023-01-10T17:38:52.263Z,100126.88
2023-01-10T17:40:54.872Z,100118.31
2023-01-10T17:42:56.909Z,100122.59
2023-01-10T17:44:58.912Z,100098.47
2023-01-10T17:47:02.694Z,100125.19
2023-01-10T17:49:04.931Z,100101.06
2023-01-10T17:51:07.820Z,100097.66
2023-01-10T17:53:10.472Z,100110.56
2023-01-10T17:55:12.692Z,100090.75
2023-01-10T17:57:15.142Z,100083.88
2023-01-10T17:59:17.206Z,100058.91
2023-01-10T18:01:24.827Z,100073.50
2023-01-10T18:03:27.423Z,100064.97
2023-01-10T18:05:29.369Z,100064.94
2023-01-10T18:07:31.413Z,100086.44
2023-01-10T18:09:33.361Z,100076.97
2023-01-10T18:11:35.640Z,100062.34
2023-01-10T18:13:37.715Z,100084.72
2023-01-10T18:15:43.165Z,100064.94
2023-01-10T18:17:45.957Z,100097.63
2023-01-10T18:19:48.114Z,100053.75
2023-01-10T18:21:50.129Z,100062.31
2023-01-10T18:23:57.101Z,100058.91
2023-01-10T18:26:03.336Z,100060.63
2023-01-10T18:28:05.709Z,100053.75
2023-01-10T18:30:08.748Z,100057.19
2023-01-10T18:32:11.163Z,100054.63
2023-01-10T18:34:13.136Z,100048.59
2023-01-10T18:36:17.506Z,100057.16
2023-01-10T18:38:19.627Z,100039.97
2023-01-10T18:40:22.540Z,100067.50
2023-01-10T18:42:24.546Z,100043.44
2023-01-10T18:44:26.588Z,100041.69
2023-01-10T18:46:29.217Z,100035.66
2023-01-10T18:48:31.377Z,100041.72
2023-01-10T18:50:33.467Z,100063.16
2023-01-10T18:52:35.607Z,100044.28
2023-01-10T18:54:37.538Z,100038.28
2023-01-10T18:56:39.935Z,100058.91
2023-01-10T18:58:42.972Z,100037.41
2023-01-10T19:00:45.277Z,100038.28
2023-01-10T19:02:47.593Z,100052.06
2023-01-10T19:04:51.546Z,100034.84
2023-01-10T19:06:55.557Z,100030.53
2023-01-10T19:08:58.716Z,100022.78
2023-01-10T19:11:12.977Z,100046.88
2023-01-10T19:13:16.316Z,100031.41
2023-01-10T19:15:18.462Z,100038.28
2023-01-10T19:17:22.465Z,100009.03
2023-01-10T19:19:24.604Z,100025.38
2023-01-10T19:21:27.539Z,100014.16
2023-01-10T19:23:30.646Z,100024.50
2023-01-10T19:25:35.431Z,100024.53
2023-01-10T19:27:37.476Z,100011.59
2023-01-10T19:29:39.445Z,100019.34
2023-01-10T19:31:42.595Z,100009.03
2023-01-10T19:33:46.324Z,100003.88
2023-01-10T19:35:48.393Z,100000.44
2023-01-10T19:37:50.400Z,100004.72
2023-01-10T19:39:52.546Z,100011.63
2023-01-10T19:41:54.582Z,100015.09
2023-01-10T19:43:58.271Z,99996.13
2023-01-10T19:46:05.461Z,100001.28
2023-01-10T19:48:07.567Z,100007.31
2023-01-10T19:50:10.446Z,99998.72
2023-01-10T19:52:12.517Z,99991.81
2023-01-10T19:54:14.472Z,99988.41
2023-01-10T19:56:22.070Z,99987.53
2023-01-10T19:58:24.025Z,100005.59
2023-01-10T20:00:26.145Z,99989.25
2023-01-10T20:02:28.128Z,99979.78
2023-01-10T20:04:30.128Z,99979.78
2023-01-10T20:06:35.179Z,99973.75
2023-01-10T20:08:37.136Z,99998.72
2023-01-10T20:10:39.146Z,99988.38
2023-01-10T20:12:41.145Z,99976.34
2023-01-10T20:14:43.111Z,99984.94
2023-01-10T20:16:46.046Z,100014.22
2023-01-10T20:18:49.282Z,99986.66
2023-01-10T20:20:51.307Z,99966.03
2023-01-10T20:22:54.848Z,99981.50
2023-01-10T20:27:04.561Z,99979.75
2023-01-10T20:29:07.053Z,99983.22
2023-01-10T20:31:13.157Z,100043.38
2023-01-10T20:33:15.228Z,99990.94
2023-01-10T20:35:22.178Z,100007.31
2023-01-10T20:37:25.070Z,99982.34
2023-01-10T20:39:27.291Z,99977.19
2023-01-10T20:41:31.200Z,100003.88
2023-01-10T20:43:33.590Z,99984.94
2023-01-10T20:45:35.559Z,99978.03
2023-01-10T20:47:37.561Z,99979.75
2023-01-10T20:49:39.684Z,99990.09
2023-01-10T20:51:41.624Z,99988.38
2023-01-10T20:53:46.617Z,99987.50
2023-01-10T20:55:59.090Z,99970.31
2023-01-10T20:58:01.964Z,99981.50
2023-01-10T21:00:05.003Z,99984.94
2023-01-10T21:02:07.272Z,99972.91
2023-01-10T21:04:09.391Z,99988.41
2023-01-10T21:06:14.727Z,99974.63
2023-01-10T21:08:18.307Z,99972.03
2023-01-10T21:10:20.715Z,99983.22
2023-01-10T21:12:26.776Z,99980.63
2023-01-10T21:14:30.638Z,99995.25
2023-01-10T21:16:32.854Z,100009.03
2023-01-10T21:18:41.365Z,99969.47
2023-01-10T21:20:44.935Z,99969.47
2023-01-10T21:22:46.977Z,99958.28
2023-01-10T21:24:50.244Z,99960.84
2023-01-10T21:26:52.417Z,99972.91
2023-01-10T21:28:55.216Z,99983.22
2023-01-10T21:30:57.787Z,99978.06
2023-01-10T21:33:00.826Z,99973.75
2023-01-10T21:35:02.855Z,99980.66
2023-01-10T21:37:04.967Z,99988.38
2023-01-10T21:39:07.077Z,99976.34
2023-01-10T21:41:14.277Z,99990.13
2023-01-10T21:43:16.356Z,99996.13
2023-01-10T21:45:19.185Z,99994.41
2023-01-10T21:47:21.357Z,99997.00
2023-01-10T21:49:23.547Z,100009.91
2023-01-10T21:51:25.530Z,99999.56
2023-01-10T21:53:28.808Z,100003.03
2023-01-10T21:55:31.029Z,100000.44
2023-01-10T21:57:33.055Z,100005.59
2023-01-10T21:59:39.540Z,100019.38
2023-01-10T22:01:41.589Z,100006.47
2023-01-10T22:03:45.908Z,100009.03
2023-01-10T22:05:48.023Z,100024.56
2023-01-10T22:07:50.031Z,100035.75
2023-01-10T22:09:52.517Z,100034.84
2023-01-10T22:11:54.566Z,100036.59
2023-01-10T22:13:57.623Z,100058.97
2023-01-10T22:16:01.563Z,100049.50
2023-01-10T22:18:03.815Z,100062.41
2023-01-10T22:20:06.824Z,100057.25
2023-01-10T22:22:09.713Z,100062.41
2023-01-10T22:24:12.265Z,100066.72
2023-01-10T22:26:16.286Z,100067.59
2023-01-10T22:28:18.496Z,100081.34
2023-01-10T22:30:20.676Z,100084.81
2023-01-10T22:32:22.911Z,100083.06
2023-01-10T22:34:24.905Z,100078.78
2023-01-10T22:36:27.183Z,100095.13
2023-01-10T22:38:30.093Z,100126.94
2023-01-10T22:40:32.144Z,100112.31
2023-01-10T22:42:34.563Z,100089.06
2023-01-10T22:44:36.640Z,100094.22
2023-01-10T22:46:38.716Z,100103.69
2023-01-10T22:48:40.804Z,100101.94
2023-01-10T22:50:49.301Z,100113.13
2023-01-10T22:52:51.784Z,100121.75
2023-01-10T22:54:53.829Z,100171.59
2023-01-10T22:56:55.902Z,100138.88
2023-01-10T22:58:57.927Z,100132.00
2023-01-10T23:01:02.704Z,100157.75
2023-01-10T23:03:04.794Z,100156.03
2023-01-10T23:05:07.541Z,100168.06
2023-01-10T23:07:11.072Z,100162.06
2023-01-10T23:09:13.184Z,100178.41
2023-01-10T23:11:17.360Z,100161.94
2023-01-10T23:13:19.606Z,100160.16
2023-01-10T23:15:21.621Z,100157.50
2023-01-10T23:17:23.993Z,100161.94
2023-01-10T23:19:26.095Z,100169.69
2023-01-10T23:21:29.537Z,100176.56
2023-01-10T23:23:32.040Z,100178.28
2023-01-10T23:25:34.075Z,100191.94
2023-01-10T23:27:36.205Z,100200.63
2023-01-10T23:29:38.197Z,100219.38
2023-01-10T23:31:40.179Z,100217.63
2023-01-10T23:33:42.192Z,100218.50
2023-01-10T23:35:44.102Z,100226.09
2023-01-10T23:37:46.060Z,100225.31
2023-01-10T23:39:48.193Z,100226.88
2023-01-10T23:41:50.315Z,100237.25
2023-01-10T23:43:52.319Z,100229.34
2023-01-10T23:45:54.453Z,100231.13
2023-01-10T23:47:56.492Z,100230.19
2023-01-10T23:49:58.578Z,100235.34
2023-01-10T23:52:00.558Z,100239.72